Time;durP1;ratioP1;P1;durP2;ratioP2;P2;SDS_P1;SDS_P2;PMS_P1;PMS_P2;Temp;Humidity;BMP_temperature;BMP_pressure;BME280_temperature;BME280_humidity;BME280_pressure;Samples;Min_cycle;Max_cycle;Signal;HPM_P1;HPM_P2
2024/04/15 08:38:15;;;;;;;15.05;4.60;;;;;;;11.93;92.07;96183.34;2253292;25;21216;-67
2024/04/15 08:39:16;;;;;;;13.38;5.25;;;;;;;12.17;91.89;96191.59;2250203;26;20222;-67
2024/04/15 08:41:53;;;;;;;10.50;3.90;;;;;;;11.91;89.28;96183.44;2223112;26;20565;-67
2024/04/15 09:01:53;;;;;;;8.35;5.00;;;;;;;12.43;91.56;96188.38;2219990;26;20898;-65
2024/04/15 09:04:08;;;;;;;7.10;3.33;;;;;;;12.65;89.14;96175.69;2266594;25;20600;-65
2024/04/15 09:05:09;;;;;;;11.15;4.32;;;;;;;12.49;87.55;96153.97;2262660;26;20296;-66
2024/04/15 09:06:12;;;;;;;13.50;4.45;;;;;;;12.70;88.34;96167.56;2264520;26;20339;-66
2024/04/15 09:07:14;;;;;;;15.30;4.68;;;;;;;12.96;87.94;96173.78;2230956;26;20306;-66
2024/04/15 09:08:15;;;;;;;12.32;4.82;;;;;;;12.77;86.65;96168.00;2225250;26;20227;-66
2024/04/15 09:09:18;;;;;;;7.40;3.47;;;;;;;12.83;86.65;96178.94;2227050;26;20226;-66
2024/04/15 09:10:20;;;;;;;10.32;4.22;;;;;;;12.93;86.46;96167.91;2235172;26;20769;-66
2024/04/15 09:11:22;;;;;;;10.77;3.58;;;;;;;13.01;85.83;96176.97;2234094;26;20454;-66
2024/04/15 09:12:24;;;;;;;10.43;3.65;;;;;;;13.04;85.35;96179.41;2235782;26;20288;-66
2024/04/15 09:51:31;;;;;;;3.75;2.67;;;;;;;12.45;89.38;96144.63;2242760;25;21081;-66
2024/04/15 09:52:39;;;;;;;9.98;3.00;;;;;;;12.57;88.09;96136.84;2220860;26;20279;-66
2024/04/15 09:53:49;;;;;;;15.73;2.72;;;;;;;12.62;86.41;96130.50;2219754;26;20254;-66
2024/04/15 09:56:16;;;;;;;8.90;2.70;;;;;;;12.72;85.35;96129.84;2236658;26;20626;-66
2024/04/15 09:57:23;;;;;;;7.00;2.22;;;;;;;12.74;85.14;96121.88;2210214;26;20254;-66
2024/04/15 09:58:26;;;;;;;10.05;3.00;;;;;;;12.68;85.24;96124.88;2209096;26;20230;-67
2024/04/15 09:59:33;;;;;;;4.30;2.20;;;;;;;12.76;85.64;96117.41;2205822;26;20336;-66
2024/04/15 10:00:40;;;;;;;5.90;2.42;;;;;;;12.74;84.82;96124.50;2208491;26;20221;-66
2024/04/15 10:01:43;;;;;;;8.25;2.95;;;;;;;12.74;84.29;96119.25;2203977;26;20273;-66
2024/04/15 10:02:53;;;;;;;9.60;3.05;;;;;;;12.83;84.47;96113.44;2192511;27;20319;-66
2024/04/15 10:03:58;;;;;;;7.20;2.95;;;;;;;12.85;84.54;96121.19;2200449;26;20217;-66
2024/04/15 10:05:08;;;;;;;9.55;2.80;;;;;;;12.69;84.52;96108.22;2198785;27;20221;-66
2024/04/15 10:06:14;;;;;;;10.80;2.10;;;;;;;12.66;84.02;96097.94;2193745;27;20241;-66
2024/04/15 10:07:17;;;;;;;10.57;2.67;;;;;;;12.70;84.36;96099.44;2189530;26;20253;-67
2024/04/15 10:08:19;;;;;;;7.03;2.83;;;;;;;12.78;83.16;96096.34;2191826;27;20214;-67
2024/04/15 10:09:23;;;;;;;6.22;2.35;;;;;;;12.96;82.88;96081.25;2198631;27;20221;-66
2024/04/15 10:10:26;;;;;;;9.73;3.15;;;;;;;13.10;82.86;96085.59;2200443;27;20217;-67
2024/04/15 10:11:28;;;;;;;10.18;2.85;;;;;;;13.01;82.22;96082.63;2194065;26;20222;-67
2024/04/15 10:12:30;;;;;;;5.90;2.10;;;;;;;13.06;82.69;96088.44;2192158;26;20671;-67
2024/04/15 10:13:33;;;;;;;8.32;2.88;;;;;;;13.17;82.90;96089.53;2193674;26;20275;-67
2024/04/15 10:14:35;;;;;;;11.07;2.85;;;;;;;13.15;81.58;96084.34;2192526;27;20272;-67
2024/04/15 10:15:40;;;;;;;9.63;2.05;;;;;;;13.13;81.48;96082.78;2192422;26;20984;-68
2024/04/15 10:16:49;;;;;;;7.82;2.42;;;;;;;13.04;81.04;96089.47;2191560;26;20221;-68
2024/04/15 10:18:07;;;;;;;8.65;2.65;;;;;;;13.17;81.61;96079.88;2193117;26;20221;-68
2024/04/15 10:19:09;;;;;;;9.82;2.33;;;;;;;13.10;82.14;96080.38;2193785;26;20745;-68
2024/04/15 10:20:12;;;;;;;4.05;2.05;;;;;;;13.10;82.32;96077.75;2192774;27;20336;-69
2024/04/15 10:21:15;;;;;;;16.85;2.30;;;;;;;13.11;81.40;96077.63;2189831;27;20272;-68
2024/04/15 10:22:16;;;;;;;14.43;3.15;;;;;;;13.17;80.96;96077.25;2189980;26;20344;-69
2024/04/15 10:23:19;;;;;;;10.05;2.50;;;;;;;13.19;79.96;96070.13;2194273;26;20236;-69
2024/04/15 10:24:22;;;;;;;10.40;2.80;;;;;;;13.20;79.59;96082.31;2191652;27;20272;-69
2024/04/15 10:25:29;;;;;;;7.18;2.00;;;;;;;13.20;79.80;96081.44;2191931;26;20714;-69
2024/04/15 10:26:32;;;;;;;15.27;2.30;;;;;;;13.14;80.13;96071.34;2192006;26;20222;-69
2024/04/15 10:27:34;;;;;;;5.13;1.65;;;;;;;13.13;79.28;96073.16;2190050;27;20278;-69
2024/04/15 10:28:36;;;;;;;5.72;2.00;;;;;;;13.08;79.75;96080.47;2193028;27;20252;-69
2024/04/15 10:29:38;;;;;;;5.22;1.95;;;;;;;13.07;78.55;96071.75;2190968;27;20226;-69
2024/04/15 10:32:28;;;;;;;5.55;2.38;;;;;;;13.06;78.21;96074.47;2228890;25;20571;-69
2024/04/15 10:35:25;;;;;;;7.43;1.75;;;;;;;13.22;79.44;96082.22;2219954;26;20647;-69
2024/04/15 10:46:43;;;;;;;4.82;1.92;;;;;;;13.26;77.86;96065.34;2261903;25;21067;-69
2024/04/15 10:49:25;;;;;;;5.55;1.50;;;;;;;13.38;77.04;96054.09;2255584;25;20636;-69
2024/04/15 10:51:57;;;;;;;9.38;1.63;;;;;;;13.69;77.00;96052.06;2248415;25;20575;-67
2024/04/15 10:56:10;;;;;;;4.78;1.63;;;;;;;13.90;77.00;96042.84;2230701;26;20624;-69
2024/04/15 11:04:31;;;;;;;4.63;2.10;;;;;;;13.67;75.16;96011.94;2228660;26;20633;-68
2024/04/15 11:05:33;;;;;;;3.78;1.48;;;;;;;13.78;75.92;96005.16;2229840;26;20920;-68
2024/04/15 11:06:35;;;;;;;9.32;1.90;;;;;;;13.88;75.17;96007.03;2227844;26;20258;-68
2024/04/15 11:08:50;;;;;;;10.75;1.98;;;;;;;13.99;75.16;96000.22;2267971;25;20562;-66
2024/04/15 11:09:51;;;;;;;4.60;1.60;;;;;;;14.24;75.31;95993.28;2258455;26;20212;-66
2024/04/15 11:10:53;;;;;;;7.22;1.70;;;;;;;14.86;72.83;95990.63;2259298;26;20208;-67
2024/04/15 11:11:55;;;;;;;5.10;2.13;;;;;;;14.98;73.25;95990.69;2247446;26;20631;-66
2024/04/15 11:12:57;;;;;;;5.70;1.52;;;;;;;14.95;72.41;95993.56;2234192;26;20211;-67
2024/04/15 11:14:00;;;;;;;5.20;1.60;;;;;;;14.86;70.66;95979.28;2227683;26;20231;-67
2024/04/15 11:15:03;;;;;;;8.75;1.67;;;;;;;15.31;70.59;95976.00;2236394;26;20264;-66
2024/04/15 11:16:06;;;;;;;6.63;1.90;;;;;;;15.52;69.98;95977.03;2233403;26;20214;-67
2024/04/15 11:17:07;;;;;;;7.43;1.75;;;;;;;15.60;70.16;95980.88;2229373;26;20238;-67
2024/04/15 11:18:15;;;;;;;4.05;1.50;;;;;;;15.40;69.71;95977.97;2233486;26;20316;-66
2024/04/15 11:19:19;;;;;;;6.15;1.65;;;;;;;15.20;70.21;95979.44;2232906;26;20540;-67
2024/04/15 11:20:23;;;;;;;4.90;2.42;;;;;;;15.23;70.43;95973.94;2233496;26;20399;-67
2024/04/15 11:21:24;;;;;;;8.18;1.75;;;;;;;15.38;70.66;95965.88;2219388;26;20254;-66
2024/04/15 11:22:26;;;;;;;7.22;2.03;;;;;;;15.38;71.69;95963.25;2218909;26;20258;-67
2024/04/15 11:23:29;;;;;;;10.68;1.90;;;;;;;15.41;71.14;95958.59;2237822;26;20213;-67
2024/04/15 11:24:33;;;;;;;9.55;1.60;;;;;;;15.19;70.11;95967.25;2238895;26;20253;-67
2024/04/15 11:25:36;;;;;;;12.57;1.77;;;;;;;15.33;70.75;95956.53;2240148;26;20225;-67
2024/04/15 11:26:39;;;;;;;7.63;1.65;;;;;;;15.25;70.21;95958.91;2235898;26;20226;-67
2024/04/15 11:27:57;;;;;;;3.67;1.33;;;;;;;14.97;70.27;95960.09;2218398;26;20224;-67
2024/04/15 11:28:59;;;;;;;8.13;1.77;;;;;;;14.65;70.59;95961.50;2225894;26;20211;-67
2024/04/15 11:30:04;;;;;;;6.38;1.50;;;;;;;14.63;71.30;95959.91;2221963;26;20219;-67
2024/04/15 11:31:08;;;;;;;14.57;1.80;;;;;;;14.47;70.62;95947.84;2215896;26;20219;-67
2024/04/15 11:34:10;;;;;;;10.07;1.65;;;;;;;14.56;70.77;95937.63;2271530;25;21312;-66
2024/04/15 11:37:03;;;;;;;17.90;2.20;;;;;;;14.39;71.49;95949.34;2248487;25;20578;-66
2024/04/15 11:39:48;;;;;;;6.63;1.40;;;;;;;14.08;70.10;95931.34;2279684;25;20571;-68
2024/04/15 11:44:24;;;;;;;15.10;1.60;;;;;;;13.96;70.40;95924.31;2255899;25;20561;-66
2024/04/15 11:46:53;;;;;;;9.25;1.73;;;;;;;14.03;69.85;95913.28;2250216;25;20564;-66
2024/04/15 11:47:57;;;;;;;9.18;1.40;;;;;;;14.08;69.13;95917.38;2234304;26;20320;-66
2024/04/15 11:48:59;;;;;;;9.63;1.42;;;;;;;14.17;70.10;95914.94;2240874;26;20215;-66
2024/04/15 11:50:01;;;;;;;6.85;1.75;;;;;;;14.35;70.05;95907.53;2233932;26;20319;-67
2024/04/15 11:51:07;;;;;;;15.13;7.93;;;;;;;14.54;69.04;95893.91;2234192;26;20234;-66
2024/04/15 11:52:08;;;;;;;15.70;5.25;;;;;;;14.56;68.56;95906.09;2226872;26;20302;-67
2024/04/15 11:53:10;;;;;;;13.40;3.17;;;;;;;14.84;68.47;95882.16;2221026;26;20291;-67
2024/04/15 11:54:12;;;;;;;5.68;1.80;;;;;;;14.92;68.26;95875.47;2212078;26;20625;-67
2024/04/15 11:55:18;;;;;;;7.65;1.48;;;;;;;14.82;68.18;95891.09;2208602;26;20219;-66
2024/04/15 11:56:20;;;;;;;12.48;2.28;;;;;;;14.86;68.63;95877.59;2207634;26;20240;-66
2024/04/15 11:57:21;;;;;;;11.75;1.70;;;;;;;14.84;68.46;95895.28;2203148;26;20256;-66
2024/04/15 11:58:23;;;;;;;4.80;1.17;;;;;;;14.60;68.55;95883.91;2218517;26;20814;-66
2024/04/15 11:59:25;;;;;;;12.25;1.55;;;;;;;14.54;69.11;95886.03;2207467;26;20255;-66
2024/04/15 12:00:27;;;;;;;7.50;1.63;;;;;;;15.04;68.25;95874.56;2208303;26;20220;-66
2024/04/15 12:01:28;;;;;;;5.00;1.63;;;;;;;15.01;67.04;95869.56;2221609;26;20328;-66
2024/04/15 12:02:30;;;;;;;13.88;1.77;;;;;;;15.29;67.61;95868.28;2219017;26;20306;-66
2024/04/15 12:03:32;;;;;;;6.00;1.45;;;;;;;15.08;67.57;95867.28;2217052;26;20802;-65
2024/04/15 12:04:33;;;;;;;11.85;1.70;;;;;;;14.96;68.02;95869.06;2216896;26;20261;-66
2024/04/15 12:05:35;;;;;;;6.40;2.20;;;;;;;14.94;67.95;95863.06;2220493;26;20258;-66
2024/04/15 12:06:42;;;;;;;7.15;1.67;;;;;;;14.91;68.48;95871.19;2221387;26;20243;-66
2024/04/15 12:07:44;;;;;;;7.38;1.25;;;;;;;14.75;68.49;95859.16;2222729;26;20220;-66
2024/04/15 12:08:45;;;;;;;11.05;1.80;;;;;;;14.76;68.41;95867.91;2219962;26;20215;-66
2024/04/15 12:09:47;;;;;;;4.60;1.55;;;;;;;14.84;68.47;95862.91;2220773;26;20216;-66
2024/04/15 12:10:52;;;;;;;5.55;1.52;;;;;;;14.62;68.64;95861.81;2218077;26;20216;-65
2024/04/15 12:13:29;;;;;;;8.32;1.55;;;;;;;14.50;69.71;95868.81;2221826;26;20567;-66
2024/04/15 12:14:31;;;;;;;6.32;1.88;;;;;;;14.45;69.80;95852.56;2220774;26;20224;-66
2024/04/15 12:17:11;;;;;;;5.97;1.80;;;;;;;14.61;70.16;95856.69;2239798;25;21084;-66
2024/04/15 12:18:13;;;;;;;6.90;1.55;;;;;;;14.81;69.57;95842.13;2237657;26;20481;-67
2024/04/15 12:50:07;;;;;;;5.63;1.77;;;;;;;13.56;72.34;95802.03;2254333;25;20634;-64
2024/04/15 12:51:09;;;;;;;5.88;1.80;;;;;;;13.87;71.90;95789.34;2251411;26;20853;-65
2024/04/15 12:52:11;;;;;;;7.82;1.83;;;;;;;14.10;71.38;95782.44;2236184;26;20242;-65
2024/04/15 12:53:13;;;;;;;10.68;1.77;;;;;;;14.11;71.31;95781.50;2234353;26;20229;-65
2024/04/15 12:54:15;;;;;;;10.50;1.55;;;;;;;14.21;71.14;95776.41;2231784;26;20225;-66
2024/04/15 12:55:16;;;;;;;8.35;1.38;;;;;;;14.37;70.10;95765.59;2226226;26;20721;-65
2024/04/15 12:56:18;;;;;;;18.88;2.15;;;;;;;14.41;69.48;95769.69;2239042;26;20668;-66
2024/04/15 12:57:20;;;;;;;6.45;1.83;;;;;;;14.45;69.57;95760.63;2228643;26;20322;-66
2024/04/15 12:58:22;;;;;;;10.23;2.00;;;;;;;14.58;69.26;95755.31;2224990;26;20212;-67
2024/04/15 12:59:23;;;;;;;16.13;5.65;;;;;;;14.73;69.57;95760.38;2228576;26;20219;-68
2024/04/15 13:00:25;;;;;;;15.63;4.70;;;;;;;14.75;69.21;95767.19;2229913;26;20250;-68
2024/04/15 13:01:27;;;;;;;12.63;5.68;;;;;;;14.98;67.83;95759.34;2228465;26;20230;-67
2024/04/15 13:02:28;;;;;;;8.90;1.92;;;;;;;14.95;68.12;95764.84;2224927;26;20367;-67
2024/04/15 13:03:30;;;;;;;6.47;2.55;;;;;;;14.82;68.27;95771.03;2230829;26;20219;-66
2024/04/15 13:04:31;;;;;;;6.57;2.10;;;;;;;14.83;68.26;95758.72;2229256;26;20522;-67
2024/04/15 13:05:36;;;;;;;5.00;1.60;;;;;;;14.88;68.45;95743.47;2229945;26;20213;-67
2024/04/15 13:06:38;;;;;;;9.30;1.80;;;;;;;15.53;66.97;95735.84;2235570;26;20248;-67
2024/04/15 13:07:39;;;;;;;8.18;1.40;;;;;;;16.26;65.55;95737.94;2227775;26;20333;-68
2024/04/15 13:08:41;;;;;;;16.17;1.75;;;;;;;16.09;65.50;95728.81;2230325;26;20297;-67
2024/04/15 13:09:43;;;;;;;6.50;1.55;;;;;;;15.80;65.58;95722.25;2234447;26;20254;-68
2024/04/15 13:10:44;;;;;;;8.82;1.67;;;;;;;16.11;65.58;95729.50;2235907;26;20214;-67
2024/04/15 13:11:46;;;;;;;16.08;2.55;;;;;;;16.07;65.03;95725.44;2218770;26;20219;-67
2024/04/15 13:12:48;;;;;;;7.28;1.75;;;;;;;15.82;65.71;95727.41;2232160;26;20967;-67
2024/04/15 13:13:50;;;;;;;9.05;1.48;;;;;;;16.02;65.86;95731.06;2235294;26;20227;-67
2024/04/15 13:14:51;;;;;;;11.82;1.73;;;;;;;15.72;66.23;95715.94;2243788;26;20318;-67
2024/04/15 13:15:53;;;;;;;5.88;1.30;;;;;;;15.52;66.29;95724.44;2229094;26;20274;-67
2024/04/15 13:16:54;;;;;;;7.90;1.40;;;;;;;16.06;65.55;95718.50;2229224;26;20262;-67
2024/04/15 13:17:58;;;;;;;4.70;1.60;;;;;;;15.92;65.59;95719.63;2237500;26;20218;-68
2024/04/15 13:19:03;;;;;;;13.40;1.88;;;;;;;15.93;64.15;95721.31;2231808;26;20211;-66
2024/04/15 13:20:06;;;;;;;6.53;1.55;;;;;;;15.95;64.60;95719.41;2232759;26;20241;-68
2024/04/15 13:21:11;;;;;;;6.45;2.13;;;;;;;15.57;65.46;95713.56;2235882;26;20315;-67
2024/04/15 13:22:13;;;;;;;10.00;1.60;;;;;;;15.71;66.45;95715.09;2235181;26;20302;-68
2024/04/15 13:23:15;;;;;;;6.22;1.40;;;;;;;15.81;66.15;95713.44;2237365;26;20226;-67
2024/04/15 13:24:16;;;;;;;9.93;1.70;;;;;;;15.69;66.20;95709.13;2234467;26;20925;-67
2024/04/15 13:25:18;;;;;;;10.27;1.63;;;;;;;15.54;66.30;95702.44;2236017;26;20256;-67
2024/04/15 13:28:13;;;;;;;6.70;1.80;;;;;;;15.16;66.70;95701.88;2251183;25;20889;-67
2024/04/15 13:29:14;;;;;;;10.40;1.80;;;;;;;15.14;65.89;95693.28;2256657;26;20208;-67
2024/04/15 13:30:16;;;;;;;5.22;1.60;;;;;;;15.17;66.22;95701.78;2254088;26;20482;-67
2024/04/15 13:31:18;;;;;;;6.10;1.60;;;;;;;15.33;65.80;95696.13;2233276;26;20238;-67
2024/04/15 13:32:20;;;;;;;8.38;2.40;;;;;;;15.45;65.84;95675.09;2212772;26;20335;-67
2024/04/15 13:33:22;;;;;;;3.78;1.70;;;;;;;15.58;65.50;95695.97;2206603;26;20216;-67
2024/04/15 13:34:24;;;;;;;15.20;1.85;;;;;;;16.16;64.42;95690.44;2206474;26;20228;-67
2024/04/15 13:35:26;;;;;;;5.40;1.45;;;;;;;16.40;63.74;95681.50;2207950;26;20213;-67
2024/04/15 13:36:28;;;;;;;13.63;1.33;;;;;;;16.75;62.64;95672.44;2204160;26;20225;-68
2024/04/15 13:37:30;;;;;;;9.07;1.95;;;;;;;16.32;61.24;95669.78;2217364;26;20247;-68
2024/04/15 13:38:31;;;;;;;9.65;1.60;;;;;;;16.41;61.99;95683.16;2221389;26;20218;-68
2024/04/15 13:39:33;;;;;;;9.68;2.40;;;;;;;16.76;61.01;95663.53;2220741;26;20220;-68
2024/04/15 13:40:35;;;;;;;8.68;2.20;;;;;;;16.46;61.64;95657.28;2221734;26;20267;-68
2024/04/15 13:41:36;;;;;;;4.00;1.60;;;;;;;16.49;61.79;95663.13;2224279;26;20211;-68
2024/04/15 13:42:38;;;;;;;6.43;1.48;;;;;;;16.69;60.64;95660.59;2218356;26;20256;-69
2024/04/15 13:43:40;;;;;;;9.50;1.60;;;;;;;16.24;60.52;95653.78;2222885;26;20212;-68
2024/04/15 13:44:42;;;;;;;7.28;1.75;;;;;;;16.25;60.88;95646.72;2222158;26;20254;-67
2024/04/15 13:45:44;;;;;;;9.52;1.60;;;;;;;16.46;59.57;95649.38;2224090;26;20259;-67
2024/04/15 13:46:45;;;;;;;10.20;1.73;;;;;;;17.01;59.84;95651.75;2222204;26;20262;-68
2024/04/15 13:47:47;;;;;;;5.78;1.45;;;;;;;17.14;58.75;95649.72;2225425;26;20274;-67
2024/04/15 13:48:49;;;;;;;5.68;1.52;;;;;;;17.69;57.81;95637.91;2225026;26;20219;-68
2024/04/15 13:49:51;;;;;;;7.93;1.63;;;;;;;17.55;57.94;95639.13;2227367;26;20214;-67
2024/04/15 13:50:52;;;;;;;3.88;1.40;;;;;;;18.22;57.85;95633.22;2224638;26;20228;-68
2024/04/15 13:51:55;;;;;;;10.15;2.13;;;;;;;18.42;56.90;95644.59;2224074;26;20215;-67
2024/04/15 13:52:56;;;;;;;11.07;1.45;;;;;;;18.62;56.20;95641.94;2220930;26;20228;-67
2024/04/15 13:53:58;;;;;;;13.93;1.45;;;;;;;18.43;55.07;95641.81;2221243;26;20250;-68
2024/04/15 13:55:03;;;;;;;3.72;1.25;;;;;;;17.89;54.38;95620.28;2223386;26;20282;-67
2024/04/15 13:56:05;;;;;;;6.93;2.70;;;;;;;17.50;53.44;95619.41;2223507;26;20702;-67
2024/04/15 13:57:08;;;;;;;5.93;1.40;;;;;;;17.27;54.32;95628.38;2208522;26;20244;-68
2024/04/15 13:58:11;;;;;;;6.43;1.30;;;;;;;16.91;54.86;95613.97;2211938;26;20329;-67
2024/04/15 13:59:12;;;;;;;6.57;1.73;;;;;;;16.79;55.41;95626.38;2222058;26;20263;-67
2024/04/15 14:00:14;;;;;;;9.00;1.40;;;;;;;16.60;54.71;95621.84;2228305;26;20290;-68
2024/04/15 14:01:16;;;;;;;3.75;1.30;;;;;;;16.55;55.00;95631.94;2225091;26;20215;-67
2024/04/15 14:02:18;;;;;;;6.72;1.55;;;;;;;16.75;55.22;95620.53;2221828;26;20307;-68
2024/04/15 14:03:23;;;;;;;3.30;1.02;;;;;;;16.85;53.79;95622.38;2221662;26;20314;-67
2024/04/15 14:04:25;;;;;;;8.55;1.10;;;;;;;17.48;52.45;95603.69;2223422;26;20217;-67
2024/04/15 14:05:27;;;;;;;8.52;1.45;;;;;;;18.05;52.17;95614.47;2223740;26;20220;-68
2024/04/15 14:06:28;;;;;;;11.27;1.67;;;;;;;18.53;50.28;95598.69;2224740;26;20645;-67
2024/04/15 14:07:30;;;;;;;6.53;1.13;;;;;;;18.03;50.54;95600.56;2218042;26;20255;-67
2024/04/15 14:08:32;;;;;;;7.63;1.60;;;;;;;18.27;50.41;95596.63;2220509;26;20330;-66
2024/04/15 14:09:33;;;;;;;11.95;1.20;;;;;;;18.09;50.14;95586.81;2223720;26;20222;-67
2024/04/15 14:10:35;;;;;;;8.55;1.60;;;;;;;18.39;51.11;95584.13;2225324;26;20219;-67
2024/04/15 14:11:37;;;;;;;9.20;1.52;;;;;;;17.52;50.80;95609.53;2222424;26;20216;-67
2024/04/15 14:12:40;;;;;;;6.22;1.20;;;;;;;16.61;51.41;95584.00;2221002;26;20232;-65
2024/04/15 14:15:49;;;;;;;8.95;2.60;;;;;;;16.16;53.36;95590.38;2253927;25;20621;-65
2024/04/15 14:16:51;;;;;;;19.75;5.03;;;;;;;15.93;53.88;95565.97;2244333;26;20300;-65
2024/04/15 14:17:55;;;;;;;9.07;1.65;;;;;;;15.97;54.52;95584.03;2219656;26;20260;-66
2024/04/15 14:18:56;;;;;;;6.38;2.50;;;;;;;16.27;54.72;95590.31;2221991;26;20219;-66
2024/04/15 14:19:58;;;;;;;12.70;1.48;;;;;;;16.41;54.04;95585.69;2225088;26;20325;-67
2024/04/15 14:21:00;;;;;;;5.53;0.95;;;;;;;16.96;52.93;95594.16;2222561;26;20219;-66
2024/04/15 14:22:01;;;;;;;10.70;1.67;;;;;;;16.67;53.61;95595.78;2222905;26;20298;-66
2024/04/15 14:23:04;;;;;;;5.70;1.70;;;;;;;16.62;53.78;95583.00;2222054;26;20622;-66
2024/04/15 14:24:06;;;;;;;8.35;1.50;;;;;;;16.49;52.99;95586.72;2221421;26;20515;-67
2024/04/15 14:25:07;;;;;;;3.55;1.20;;;;;;;16.48;53.76;95578.91;2222007;26;20247;-67
2024/04/15 14:26:09;;;;;;;7.15;1.48;;;;;;;17.22;52.91;95582.28;2219830;26;20220;-67
2024/04/15 14:27:11;;;;;;;3.80;1.42;;;;;;;17.72;52.29;95570.81;2210840;26;20247;-66
2024/04/15 14:28:12;;;;;;;5.50;1.70;;;;;;;17.26;52.65;95581.88;2217061;26;20224;-67
2024/04/15 14:29:14;;;;;;;4.82;1.40;;;;;;;17.04;53.76;95577.66;2218937;26;20218;-67
2024/04/15 14:30:15;;;;;;;10.07;1.70;;;;;;;16.75;54.85;95585.44;2220530;26;20216;-66
2024/04/15 14:31:17;;;;;;;3.17;1.17;;;;;;;16.64;54.85;95575.81;2219623;26;20815;-67
2024/04/15 14:32:19;;;;;;;8.65;1.48;;;;;;;16.52;54.94;95576.84;2220583;26;20250;-67
2024/04/15 14:35:11;;;;;;;11.75;3.20;;;;;;;16.37;55.05;95563.22;2221728;26;20633;-67
2024/04/15 14:39:13;;;;;;;3.33;1.13;;;;;;;15.91;55.78;95563.47;2251947;26;20580;-66
2024/04/15 14:40:14;;;;;;;5.47;1.52;;;;;;;15.81;55.58;95560.78;2252288;26;20499;-66
2024/04/15 14:41:24;;;;;;;2.85;1.10;;;;;;;15.84;55.92;95562.31;2250125;26;20222;-66
2024/04/15 14:42:26;;;;;;;5.72;1.17;;;;;;;16.58;54.47;95563.16;2229562;26;20816;-66
2024/04/15 14:43:27;;;;;;;6.20;1.48;;;;;;;16.72;54.43;95564.59;2228791;26;20581;-66
2024/04/15 14:44:30;;;;;;;6.43;1.30;;;;;;;17.37;53.15;95553.69;2226489;26;20258;-66
2024/04/15 14:45:32;;;;;;;8.25;1.65;;;;;;;17.35;53.32;95551.19;2229857;26;20227;-66
2024/04/15 14:46:33;;;;;;;5.50;1.48;;;;;;;18.04;51.88;95548.56;2227786;26;20238;-67
2024/04/15 14:47:35;;;;;;;13.07;2.00;;;;;;;18.42;51.14;95545.03;2212483;26;20315;-69
2024/04/15 14:48:37;;;;;;;5.20;1.35;;;;;;;18.69;51.20;95548.69;2210629;26;20221;-69
2024/04/15 14:49:38;;;;;;;4.60;1.23;;;;;;;18.41;50.94;95539.84;2214670;26;20531;-69
2024/04/15 14:50:40;;;;;;;14.80;1.17;;;;;;;17.83;49.69;95540.81;2215629;26;20339;-69
2024/04/15 14:51:41;;;;;;;7.15;1.40;;;;;;;17.62;51.04;95518.00;2209008;26;20228;-65
2024/04/15 14:52:43;;;;;;;19.20;1.77;;;;;;;17.71;51.02;95558.56;2211591;26;20351;-67
2024/04/15 14:53:46;;;;;;;3.47;0.95;;;;;;;17.22;50.27;95559.38;2214570;26;20216;-68
2024/04/15 14:54:48;;;;;;;11.50;1.35;;;;;;;16.84;51.37;95515.28;2213637;26;20216;-68
